createdAt,value
2017-10-30T00:00:25.504Z,0
2017-10-30T00:01:25.551Z,0
2017-10-30T00:02:24.810Z,0
2017-10-30T00:03:25.432Z,0
2017-10-30T00:04:25.766Z,0
2017-10-30T00:05:25.064Z,0
2017-10-30T00:06:25.376Z,0
2017-10-30T00:07:25.358Z,0
2017-10-30T00:08:25.680Z,0
2017-10-30T00:09:24.657Z,0
2017-10-30T00:10:24.975Z,0
2017-10-30T00:11:25.285Z,0
2017-10-30T00:12:25.609Z,0
2017-10-30T00:13:24.916Z,0
2017-10-30T00:14:24.892Z,0
2017-10-30T00:15:24.877Z,0
2017-10-30T00:16:24.858Z,0
2017-10-30T00:17:25.181Z,0
2017-10-30T00:18:25.156Z,0
2017-10-30T00:19:25.134Z,0
2017-10-30T00:20:25.476Z,0
2017-10-30T00:21:24.760Z,0
2017-10-30T00:22:25.085Z,0
2017-10-30T00:23:24.724Z,0
2017-10-30T00:24:25.043Z,0
2017-10-30T00:25:24.688Z,0
2017-10-30T00:26:24.338Z,0
2017-10-30T00:27:24.317Z,0
2017-10-30T00:28:24.955Z,0
2017-10-30T00:29:24.962Z,0
2017-10-30T00:30:24.594Z,0
2017-10-30T00:31:24.926Z,0
2017-10-30T00:32:24.663Z,0
2017-10-30T00:33:24.547Z,0
2017-10-30T00:34:24.865Z,0
2017-10-30T00:35:24.848Z,0
2017-10-30T00:36:24.164Z,0
2017-10-30T00:37:25.185Z,0
2017-10-30T00:38:24.791Z,0
2017-10-30T00:39:24.424Z,0
2017-10-30T00:40:24.754Z,0
2017-10-30T00:41:24.396Z,0
2017-10-30T00:42:24.044Z,0
2017-10-30T00:43:24.701Z,0
2017-10-30T00:44:24.678Z,0
2017-10-30T00:45:24.658Z,0
2017-10-30T00:46:24.639Z,0
2017-10-30T00:47:25.086Z,0
2017-10-30T00:48:23.596Z,0
2017-10-30T00:49:24.588Z,0
2017-10-30T00:50:24.563Z,0
2017-10-30T00:51:24.216Z,0
2017-10-30T00:52:24.180Z,0
2017-10-30T00:53:24.502Z,0
2017-10-30T00:54:24.477Z,0
2017-10-30T00:55:24.126Z,0
2017-10-30T00:56:24.105Z,0
2017-10-30T00:57:23.854Z,0
2017-10-30T00:58:23.743Z,0
2017-10-30T00:59:24.387Z,0
2017-10-30T01:00:24.365Z,0
2017-10-30T01:01:24.562Z,0
2017-10-30T01:02:23.991Z,0
2017-10-30T01:03:23.984Z,0
2017-10-30T01:04:24.290Z,0
2017-10-30T01:05:23.613Z,0
2017-10-30T01:06:24.252Z,0
2017-10-30T01:07:24.232Z,0
2017-10-30T01:08:23.883Z,0
2017-10-30T01:09:23.886Z,0
2017-10-30T01:10:23.193Z,0
2017-10-30T01:11:23.838Z,0
2017-10-30T01:12:23.819Z,0
2017-10-30T01:13:23.462Z,0
2017-10-30T01:14:24.453Z,0
2017-10-30T01:15:23.750Z,0
2017-10-30T01:16:24.433Z,0
2017-10-30T01:17:23.713Z,0
2017-10-30T01:18:24.022Z,0
2017-10-30T01:19:23.669Z,0
2017-10-30T01:20:23.998Z,0
2017-10-30T01:21:23.644Z,0
2017-10-30T01:22:23.952Z,0
2017-10-30T01:23:23.927Z,0
2017-10-30T01:24:24.235Z,0
2017-10-30T01:25:23.930Z,0
2017-10-30T01:26:24.085Z,0
2017-10-30T01:27:23.874Z,0
2017-10-30T01:28:23.504Z,0
2017-10-30T01:29:23.815Z,0
2017-10-30T01:30:23.802Z,0
2017-10-30T01:31:24.178Z,0
2017-10-30T01:32:23.756Z,0
2017-10-30T01:33:23.836Z,0
2017-10-30T01:34:23.717Z,0
2017-10-30T01:35:24.054Z,0
2017-10-30T01:36:23.675Z,0
2017-10-30T01:37:23.686Z,0
2017-10-30T01:38:23.316Z,0
2017-10-30T01:39:23.991Z,0
2017-10-30T01:40:23.965Z,0
2017-10-30T01:41:22.918Z,0
2017-10-30T01:42:23.240Z,0
2017-10-30T01:43:23.644Z,0
2017-10-30T01:44:23.862Z,0
2017-10-30T01:45:22.505Z,0
2017-10-30T01:46:22.825Z,0
2017-10-30T01:47:23.812Z,0
2017-10-30T01:48:22.846Z,0
2017-10-30T01:49:23.112Z,0
2017-10-30T01:50:23.099Z,0
2017-10-30T01:51:23.416Z,0
2017-10-30T01:52:23.407Z,0
2017-10-30T01:53:23.353Z,0
2017-10-30T01:54:23.358Z,0
2017-10-30T01:55:23.314Z,0
2017-10-30T01:56:23.320Z,0
2017-10-30T01:57:22.945Z,0
2017-10-30T01:58:22.940Z,0
2017-10-30T01:59:23.348Z,0
2017-10-30T02:00:23.227Z,0
2017-10-30T02:01:23.551Z,0
2017-10-30T02:02:22.857Z,0
2017-10-30T02:03:22.507Z,0
2017-10-30T02:04:22.830Z,0
2017-10-30T02:05:23.147Z,0
2017-10-30T02:06:23.141Z,0
2017-10-30T02:07:23.100Z,0
2017-10-30T02:08:22.746Z,0
2017-10-30T02:09:22.723Z,0
2017-10-30T02:10:23.057Z,0
2017-10-30T02:11:22.681Z,0
2017-10-30T02:12:22.686Z,0
2017-10-30T02:13:22.987Z,0
2017-10-30T02:14:22.633Z,0
2017-10-30T02:15:22.955Z,0
2017-10-30T02:16:22.949Z,0
2017-10-30T02:17:22.911Z,0
2017-10-30T02:18:23.226Z,0
2017-10-30T02:19:22.974Z,0
2017-10-30T02:20:22.862Z,0
2017-10-30T02:21:22.839Z,0
2017-10-30T02:22:23.150Z,0
2017-10-30T02:23:22.790Z,0
2017-10-30T02:24:22.438Z,0
2017-10-30T02:25:22.103Z,0
2017-10-30T02:26:22.398Z,0
2017-10-30T02:27:22.379Z,0
2017-10-30T02:28:22.360Z,0
2017-10-30T02:29:22.442Z,0
2017-10-30T02:30:22.329Z,0
2017-10-30T02:31:21.968Z,0
2017-10-30T02:32:22.632Z,0
2017-10-30T02:33:22.300Z,0
2017-10-30T02:34:21.917Z,0
2017-10-30T02:35:22.239Z,0
2017-10-30T02:36:22.221Z,0
2017-10-30T02:37:22.212Z,0
2017-10-30T02:38:22.853Z,0
2017-10-30T02:39:22.156Z,0
2017-10-30T02:40:22.825Z,0
2017-10-30T02:41:22.128Z,0
2017-10-30T02:42:22.437Z,0
2017-10-30T02:43:22.077Z,0
2017-10-30T02:44:21.722Z,0
2017-10-30T02:45:22.811Z,0
2017-10-30T02:46:21.690Z,0
2017-10-30T02:47:22.011Z,0
2017-10-30T02:48:21.651Z,0
2017-10-30T02:49:22.290Z,0
2017-10-30T02:50:22.295Z,0
2017-10-30T02:51:22.277Z,0
2017-10-30T02:52:21.921Z,0
2017-10-30T02:53:22.242Z,0
2017-10-30T02:54:21.543Z,0
2017-10-30T02:55:22.192Z,0
2017-10-30T02:56:21.500Z,0
2017-10-30T02:57:22.143Z,0
2017-10-30T02:58:22.129Z,0
2017-10-30T02:59:21.448Z,0
2017-10-30T03:00:22.088Z,0
2017-10-30T03:01:22.090Z,0
2017-10-30T03:02:22.063Z,0
2017-10-30T03:03:21.365Z,0
2017-10-30T03:04:22.011Z,0
2017-10-30T03:05:22.091Z,0
2017-10-30T03:06:21.658Z,0
2017-10-30T03:07:21.621Z,0
2017-10-30T03:08:21.610Z,0
2017-10-30T03:09:21.242Z,0
2017-10-30T03:10:21.609Z,0
2017-10-30T03:11:21.876Z,0
2017-10-30T03:12:21.889Z,0
2017-10-30T03:13:21.842Z,0
2017-10-30T03:14:21.825Z,0
2017-10-30T03:15:22.128Z,0
2017-10-30T03:16:21.113Z,0
2017-10-30T03:17:21.768Z,0
2017-10-30T03:18:21.749Z,0
2017-10-30T03:19:21.729Z,0
2017-10-30T03:20:21.400Z,0
2017-10-30T03:21:21.031Z,0
2017-10-30T03:22:21.337Z,0
2017-10-30T03:23:20.986Z,0
2017-10-30T03:24:21.635Z,0
2017-10-30T03:25:21.381Z,0
2017-10-30T03:26:21.278Z,0
2017-10-30T03:27:21.918Z,0
2017-10-30T03:28:21.560Z,0
2017-10-30T03:29:21.539Z,0
2017-10-30T03:30:21.523Z,0
2017-10-30T03:31:21.564Z,0
2017-10-30T03:32:20.811Z,0
2017-10-30T03:33:21.795Z,0
2017-10-30T03:34:21.436Z,0
2017-10-30T03:35:21.755Z,0
2017-10-30T03:36:21.391Z,0
2017-10-30T03:37:21.048Z,0
2017-10-30T03:38:21.361Z,0
2017-10-30T03:39:21.677Z,0
2017-10-30T03:40:20.987Z,0
2017-10-30T03:41:21.741Z,0
2017-10-30T03:42:21.617Z,0
2017-10-30T03:43:20.602Z,0
2017-10-30T03:44:20.579Z,0
2017-10-30T03:45:21.436Z,0
2017-10-30T03:46:21.194Z,0
2017-10-30T03:47:21.073Z,0
2017-10-30T03:48:20.838Z,0
2017-10-30T03:49:20.481Z,0
2017-10-30T03:50:20.802Z,0
2017-10-30T03:51:21.648Z,0
2017-10-30T03:52:21.453Z,0
2017-10-30T03:53:20.400Z,0
2017-10-30T03:54:20.721Z,0
2017-10-30T03:55:20.370Z,0
2017-10-30T03:56:21.112Z,0
2017-10-30T03:57:20.332Z,0
2017-10-30T03:58:20.310Z,0
2017-10-30T03:59:20.976Z,0
2017-10-30T04:00:20.937Z,0
2017-10-30T04:01:20.913Z,0
2017-10-30T04:02:20.235Z,0
2017-10-30T04:03:20.235Z,0
2017-10-30T04:04:21.196Z,0
2017-10-30T04:05:21.169Z,0
2017-10-30T04:06:20.815Z,0
2017-10-30T04:07:20.469Z,0
2017-10-30T04:08:20.109Z,0
2017-10-30T04:09:21.088Z,0
2017-10-30T04:10:20.079Z,0
2017-10-30T04:11:20.378Z,0
2017-10-30T04:12:20.695Z,0
2017-10-30T04:13:20.711Z,0
2017-10-30T04:14:20.675Z,0
2017-10-30T04:15:20.654Z,0
2017-10-30T04:16:20.619Z,0
2017-10-30T04:17:20.614Z,0
2017-10-30T04:18:20.589Z,0
2017-10-30T04:19:19.915Z,0
2017-10-30T04:20:20.221Z,0
2017-10-30T04:21:20.208Z,0
2017-10-30T04:22:20.529Z,0
2017-10-30T04:23:19.828Z,0
2017-10-30T04:24:20.475Z,0
2017-10-30T04:25:20.110Z,0
2017-10-30T04:26:20.150Z,0
2017-10-30T04:27:20.069Z,0
2017-10-30T04:28:20.053Z,0
2017-10-30T04:29:20.036Z,0
2017-10-30T04:30:19.693Z,0
2017-10-30T04:31:19.670Z,0
2017-10-30T04:32:20.085Z,0
2017-10-30T04:33:19.953Z,0
2017-10-30T04:34:19.945Z,0
2017-10-30T04:35:19.929Z,0
2017-10-30T04:36:19.895Z,0
2017-10-30T04:37:19.880Z,0
2017-10-30T04:38:20.237Z,0
2017-10-30T04:39:19.845Z,0
2017-10-30T04:40:19.829Z,0
2017-10-30T04:41:20.137Z,0
2017-10-30T04:42:20.225Z,0
2017-10-30T04:43:20.097Z,0
2017-10-30T04:44:19.403Z,0
2017-10-30T04:45:19.723Z,0
2017-10-30T04:46:19.721Z,0
2017-10-30T04:47:20.021Z,0
2017-10-30T04:48:19.659Z,0
2017-10-30T04:49:19.312Z,0
2017-10-30T04:50:19.632Z,0
2017-10-30T04:51:19.935Z,0
2017-10-30T04:52:20.310Z,0
2017-10-30T04:53:19.259Z,0
2017-10-30T04:54:19.892Z,0
2017-10-30T04:55:19.531Z,0
2017-10-30T04:56:19.556Z,0
2017-10-30T04:57:19.500Z,0
2017-10-30T04:58:19.810Z,0
2017-10-30T04:59:18.786Z,0
2017-10-30T05:00:19.423Z,0
2017-10-30T05:01:19.747Z,0
2017-10-30T05:02:19.779Z,0
2017-10-30T05:03:19.735Z,0
2017-10-30T05:04:19.369Z,0
2017-10-30T05:05:19.684Z,0
2017-10-30T05:06:19.995Z,0
2017-10-30T05:07:19.298Z,0
2017-10-30T05:08:19.612Z,0
2017-10-30T05:09:18.924Z,0
2017-10-30T05:10:19.918Z,0
2017-10-30T05:11:19.211Z,0
2017-10-30T05:12:18.858Z,0
2017-10-30T05:13:19.512Z,0
2017-10-30T05:14:19.147Z,0
2017-10-30T05:15:19.145Z,0
2017-10-30T05:16:19.113Z,0
2017-10-30T05:17:19.099Z,0
2017-10-30T05:18:19.767Z,0
2017-10-30T05:19:19.058Z,0
2017-10-30T05:20:19.378Z,0
2017-10-30T05:21:19.357Z,0
2017-10-30T05:22:18.668Z,0
2017-10-30T05:23:19.317Z,0
2017-10-30T05:24:18.960Z,0
2017-10-30T05:25:19.605Z,0
2017-10-30T05:26:18.924Z,0
2017-10-30T05:27:19.233Z,0
2017-10-30T05:28:19.218Z,0
2017-10-30T05:29:18.538Z,0
2017-10-30T05:30:18.840Z,0
2017-10-30T05:31:18.830Z,0
2017-10-30T05:32:19.025Z,0
2017-10-30T05:33:18.454Z,0
2017-10-30T05:34:19.102Z,0
2017-10-30T05:35:19.091Z,0
2017-10-30T05:36:18.733Z,0
2017-10-30T05:37:18.369Z,0
2017-10-30T05:38:18.690Z,0
2017-10-30T05:39:18.672Z,0
2017-10-30T05:40:17.992Z,0
2017-10-30T05:41:18.978Z,0
2017-10-30T05:42:19.282Z,0
2017-10-30T05:43:19.031Z,0
2017-10-30T05:44:18.916Z,0
2017-10-30T05:45:18.560Z,0
2017-10-30T05:46:18.529Z,0
2017-10-30T05:47:18.839Z,0
2017-10-30T05:48:18.837Z,0
2017-10-30T05:49:18.479Z,0
2017-10-30T05:50:18.785Z,0
2017-10-30T05:51:18.477Z,0
2017-10-30T05:52:19.118Z,0
2017-10-30T05:53:18.504Z,0
2017-10-30T05:54:18.708Z,0
2017-10-30T05:55:18.366Z,0
2017-10-30T05:56:18.682Z,0
2017-10-30T05:57:18.336Z,0
2017-10-30T05:58:18.688Z,0
2017-10-30T05:59:18.274Z,0
2017-10-30T06:00:18.945Z,0
2017-10-30T06:01:17.570Z,0
2017-10-30T06:02:18.561Z,0
2017-10-30T06:03:18.203Z,0
2017-10-30T06:04:18.183Z,0
2017-10-30T06:05:18.837Z,0
2017-10-30T06:06:18.478Z,0
2017-10-30T06:07:18.125Z,0
2017-10-30T06:08:18.243Z,0
2017-10-30T06:09:18.082Z,0
2017-10-30T06:10:18.411Z,0
2017-10-30T06:11:18.061Z,0
2017-10-30T06:12:18.040Z,0
2017-10-30T06:13:17.678Z,0
2017-10-30T06:14:17.994Z,0
2017-10-30T06:15:17.970Z,0
2017-10-30T06:16:18.288Z,0
2017-10-30T06:17:18.600Z,0
2017-10-30T06:18:17.917Z,0
2017-10-30T06:19:17.563Z,0
2017-10-30T06:20:17.894Z,0
2017-10-30T06:21:18.207Z,0
2017-10-30T06:22:17.842Z,0
2017-10-30T06:23:17.817Z,0
2017-10-30T06:24:17.571Z,5
2017-10-30T06:25:17.469Z,5
2017-10-30T06:26:18.437Z,5
2017-10-30T06:27:17.079Z,5
2017-10-30T06:28:17.743Z,5
2017-10-30T06:29:17.709Z,5
2017-10-30T06:30:17.366Z,5
2017-10-30T06:31:17.692Z,10
2017-10-30T06:32:17.660Z,10
2017-10-30T06:33:17.976Z,10
2017-10-30T06:34:17.375Z,10
2017-10-30T06:35:17.931Z,10
2017-10-30T06:36:17.251Z,10
2017-10-30T06:37:17.895Z,15
2017-10-30T06:38:17.535Z,15
2017-10-30T06:39:17.962Z,15
2017-10-30T06:40:17.831Z,15
2017-10-30T06:41:17.534Z,15
2017-10-30T06:42:17.136Z,15
2017-10-30T06:43:17.454Z,15
2017-10-30T06:44:17.677Z,15
2017-10-30T06:45:17.733Z,15
2017-10-30T06:46:17.388Z,20
2017-10-30T06:47:18.026Z,20
2017-10-30T06:48:17.684Z,20
2017-10-30T06:49:17.318Z,20
2017-10-30T06:50:17.315Z,20
2017-10-30T06:51:16.965Z,25
2017-10-30T06:52:17.272Z,25
2017-10-30T06:53:17.584Z,25
2017-10-30T06:54:17.909Z,25
2017-10-30T06:55:17.546Z,25
2017-10-30T06:56:17.898Z,25
2017-10-30T06:57:17.189Z,25
2017-10-30T06:58:17.512Z,25
2017-10-30T06:59:17.230Z,25
2017-10-30T07:00:16.784Z,30
2017-10-30T07:01:17.443Z,35
2017-10-30T07:02:17.787Z,35
2017-10-30T07:03:16.720Z,30
2017-10-30T07:04:17.038Z,30
2017-10-30T07:05:17.354Z,30
2017-10-30T07:06:16.997Z,25
2017-10-30T07:07:16.995Z,25
2017-10-30T07:08:16.293Z,30
2017-10-30T07:09:17.584Z,30
2017-10-30T07:10:16.924Z,30
2017-10-30T07:11:16.903Z,25
2017-10-30T07:12:17.224Z,25
2017-10-30T07:13:16.905Z,25
2017-10-30T07:14:16.524Z,25
2017-10-30T07:15:17.160Z,30
2017-10-30T07:16:17.142Z,35
2017-10-30T07:17:16.795Z,35
2017-10-30T07:18:17.112Z,35
2017-10-30T07:19:17.423Z,35
2017-10-30T07:20:17.403Z,30
2017-10-30T07:21:17.065Z,35
2017-10-30T07:22:16.699Z,35
2017-10-30T07:23:17.025Z,35
2017-10-30T07:24:16.323Z,35
2017-10-30T07:25:16.648Z,35
2017-10-30T07:26:16.633Z,40
2017-10-30T07:27:16.607Z,40
2017-10-30T07:28:16.587Z,40
2017-10-30T07:29:16.573Z,45
2017-10-30T07:30:17.215Z,45
2017-10-30T07:31:16.872Z,45
2017-10-30T07:32:16.043Z,45
2017-10-30T07:33:16.499Z,45
2017-10-30T07:34:17.149Z,45
2017-10-30T07:35:16.894Z,50
2017-10-30T07:36:16.434Z,50
2017-10-30T07:37:16.419Z,50
2017-10-30T07:38:16.065Z,55
2017-10-30T07:39:17.057Z,55
2017-10-30T07:40:16.366Z,75
2017-10-30T07:41:16.016Z,90
2017-10-30T07:42:16.666Z,90
2017-10-30T07:43:15.974Z,85
2017-10-30T07:44:16.642Z,80
2017-10-30T07:45:17.052Z,80
2017-10-30T07:46:16.604Z,80
2017-10-30T07:47:16.572Z,75
2017-10-30T07:48:16.563Z,70
2017-10-30T07:49:16.202Z,75
2017-10-30T07:50:16.181Z,75
2017-10-30T07:51:16.165Z,80
2017-10-30T07:52:16.826Z,80
2017-10-30T07:53:16.816Z,80
2017-10-30T07:54:16.450Z,80
2017-10-30T07:55:15.772Z,80
2017-10-30T07:56:16.749Z,85
2017-10-30T07:57:16.394Z,95
2017-10-30T07:58:15.709Z,100
2017-10-30T07:59:16.688Z,110
2017-10-30T08:00:15.679Z,105
2017-10-30T08:01:16.316Z,95
2017-10-30T08:02:15.965Z,85
2017-10-30T08:03:16.292Z,85
2017-10-30T08:04:15.595Z,90
2017-10-30T08:05:15.629Z,85
2017-10-30T08:06:15.562Z,80
2017-10-30T08:07:15.547Z,80
2017-10-30T08:08:16.542Z,90
2017-10-30T08:09:15.173Z,90
2017-10-30T08:10:16.266Z,85
2017-10-30T08:11:15.816Z,85
2017-10-30T08:12:15.448Z,90
2017-10-30T08:13:16.094Z,90
2017-10-30T08:14:15.418Z,100
2017-10-30T08:15:15.403Z,105
2017-10-30T08:16:16.064Z,105
2017-10-30T08:17:15.705Z,125
2017-10-30T08:18:16.019Z,115
2017-10-30T08:19:15.993Z,110
2017-10-30T08:20:15.642Z,115
2017-10-30T08:21:15.625Z,120
2017-10-30T08:22:15.957Z,130
2017-10-30T08:23:15.593Z,115
2017-10-30T08:24:15.913Z,120
2017-10-30T08:25:15.710Z,115
2017-10-30T08:26:16.217Z,115
2017-10-30T08:27:15.528Z,115
2017-10-30T08:28:15.511Z,120
2017-10-30T08:29:15.827Z,130
2017-10-30T08:30:15.811Z,130
2017-10-30T08:31:15.457Z,115
2017-10-30T08:32:15.445Z,105
2017-10-30T08:33:15.747Z,105
2017-10-30T08:34:16.071Z,110
2017-10-30T08:35:15.718Z,130
2017-10-30T08:36:15.038Z,150
2017-10-30T08:37:15.693Z,160
2017-10-30T08:38:15.347Z,165
2017-10-30T08:39:15.657Z,150
2017-10-30T08:40:15.961Z,150
2017-10-30T08:41:14.953Z,145
2017-10-30T08:42:15.611Z,155
2017-10-30T08:43:14.920Z,155
2017-10-30T08:44:14.899Z,155
2017-10-30T08:45:15.212Z,155
2017-10-30T08:46:14.579Z,155
2017-10-30T08:47:15.191Z,155
2017-10-30T08:48:15.839Z,145
2017-10-30T08:49:15.145Z,150
2017-10-30T08:50:15.132Z,150
2017-10-30T08:51:15.463Z,160
2017-10-30T08:52:14.766Z,155
2017-10-30T08:53:15.412Z,160
2017-10-30T08:54:14.731Z,160
2017-10-30T08:55:14.715Z,150
2017-10-30T08:56:15.364Z,145
2017-10-30T08:57:15.353Z,140
2017-10-30T08:58:14.997Z,140
2017-10-30T08:59:14.982Z,165
2017-10-30T09:00:15.660Z,175
2017-10-30T09:01:14.955Z,175
2017-10-30T09:02:15.272Z,165
2017-10-30T09:03:15.263Z,160
2017-10-30T09:04:15.241Z,165
2017-10-30T09:05:15.229Z,175
2017-10-30T09:06:15.314Z,165
2017-10-30T09:07:14.862Z,160
2017-10-30T09:08:14.501Z,165
2017-10-30T09:09:14.816Z,160
2017-10-30T09:10:15.140Z,160
2017-10-30T09:11:14.786Z,150
2017-10-30T09:12:14.441Z,145
2017-10-30T09:13:15.088Z,145
2017-10-30T09:14:15.418Z,160
2017-10-30T09:15:15.067Z,180
2017-10-30T09:16:14.803Z,180
2017-10-30T09:17:15.030Z,180
2017-10-30T09:18:14.349Z,200
2017-10-30T09:19:15.322Z,205
2017-10-30T09:20:14.687Z,195
2017-10-30T09:21:14.967Z,190
2017-10-30T09:22:14.269Z,215
2017-10-30T09:23:14.263Z,240
2017-10-30T09:24:15.258Z,235
2017-10-30T09:25:15.244Z,205
2017-10-30T09:26:15.327Z,175
2017-10-30T09:27:14.537Z,185
2017-10-30T09:28:14.861Z,205
2017-10-30T09:29:14.837Z,215
2017-10-30T09:30:14.494Z,215
2017-10-30T09:31:14.489Z,225
2017-10-30T09:32:14.907Z,220
2017-10-30T09:33:14.764Z,195
2017-10-30T09:34:14.086Z,205
2017-10-30T09:35:14.744Z,190
2017-10-30T09:36:15.060Z,175
2017-10-30T09:37:15.038Z,165
2017-10-30T09:38:14.051Z,175
2017-10-30T09:39:14.036Z,185
2017-10-30T09:40:14.347Z,170
2017-10-30T09:41:14.315Z,170
2017-10-30T09:42:14.070Z,200
2017-10-30T09:43:14.632Z,200
2017-10-30T09:44:14.933Z,205
2017-10-30T09:45:14.615Z,180
2017-10-30T09:46:13.916Z,165
2017-10-30T09:47:14.902Z,170
2017-10-30T09:48:14.538Z,190
2017-10-30T09:49:14.734Z,210
2017-10-30T09:50:14.523Z,200
2017-10-30T09:51:14.161Z,195
2017-10-30T09:52:14.150Z,190
2017-10-30T09:53:14.148Z,195
2017-10-30T09:54:14.457Z,195
2017-10-30T09:55:13.773Z,200
2017-10-30T09:56:14.421Z,220
2017-10-30T09:57:14.840Z,230
2017-10-30T09:58:14.594Z,230
2017-10-30T09:59:14.047Z,235
2017-10-30T10:00:14.384Z,240
2017-10-30T10:01:13.687Z,240
2017-10-30T10:02:14.331Z,240
2017-10-30T10:03:14.320Z,230
2017-10-30T10:04:13.987Z,220
2017-10-30T10:05:14.295Z,215
2017-10-30T10:06:13.608Z,200
2017-10-30T10:07:13.938Z,200
2017-10-30T10:08:14.251Z,175
2017-10-30T10:09:14.232Z,150
2017-10-30T10:10:14.230Z,150
2017-10-30T10:11:13.541Z,165
2017-10-30T10:12:14.196Z,160
2017-10-30T10:13:13.846Z,180
2017-10-30T10:14:14.162Z,300
2017-10-30T10:15:13.821Z,250
2017-10-30T10:16:13.461Z,400
2017-10-30T10:17:14.458Z,300
2017-10-30T10:18:14.431Z,175
2017-10-30T10:19:13.765Z,145
2017-10-30T10:20:13.738Z,145
2017-10-30T10:21:13.745Z,155
2017-10-30T10:22:14.380Z,155
2017-10-30T10:23:14.030Z,160
2017-10-30T10:24:14.020Z,195
2017-10-30T10:25:13.680Z,325
2017-10-30T10:26:13.993Z,360
2017-10-30T10:27:13.636Z,385
2017-10-30T10:28:13.962Z,510
2017-10-30T10:29:13.948Z,435
2017-10-30T10:30:13.940Z,285
2017-10-30T10:31:13.244Z,365
2017-10-30T10:32:13.909Z,370
2017-10-30T10:33:14.221Z,340
2017-10-30T10:34:14.207Z,350
2017-10-30T10:35:13.855Z,360
2017-10-30T10:36:13.509Z,345
2017-10-30T10:37:13.829Z,395
2017-10-30T10:38:13.816Z,320
2017-10-30T10:39:13.146Z,295
2017-10-30T10:40:14.131Z,265
2017-10-30T10:41:13.109Z,270
2017-10-30T10:42:13.774Z,300
2017-10-30T10:43:13.422Z,435
2017-10-30T10:44:13.410Z,420
2017-10-30T10:45:13.402Z,365
2017-10-30T10:46:14.047Z,385
2017-10-30T10:47:13.698Z,395
2017-10-30T10:48:13.786Z,385
2017-10-30T10:49:14.011Z,380
2017-10-30T10:50:12.995Z,325
2017-10-30T10:51:13.647Z,330
2017-10-30T10:52:12.973Z,315
2017-10-30T10:53:12.961Z,270
2017-10-30T10:54:12.946Z,270
2017-10-30T10:55:13.945Z,320
2017-10-30T10:56:13.269Z,235
2017-10-30T10:57:13.254Z,245
2017-10-30T10:58:13.665Z,235
2017-10-30T10:59:13.214Z,250
2017-10-30T11:00:13.569Z,215
2017-10-30T11:01:13.532Z,195
2017-10-30T11:02:12.849Z,245
2017-10-30T11:03:13.845Z,235
2017-10-30T11:04:13.493Z,220
2017-10-30T11:05:12.816Z,285
2017-10-30T11:06:13.480Z,195
2017-10-30T11:07:12.456Z,210
2017-10-30T11:08:13.442Z,300
2017-10-30T11:09:13.093Z,680
2017-10-30T11:10:13.759Z,485
2017-10-30T11:11:13.751Z,240
2017-10-30T11:12:13.057Z,130
2017-10-30T11:13:13.039Z,135
2017-10-30T11:14:13.051Z,195
2017-10-30T11:15:13.708Z,215
2017-10-30T11:16:13.668Z,290
2017-10-30T11:17:13.324Z,375
2017-10-30T11:18:12.652Z,405
2017-10-30T11:19:13.325Z,660
2017-10-30T11:20:12.296Z,570
2017-10-30T11:21:13.279Z,515
2017-10-30T11:22:13.286Z,390
2017-10-30T11:23:13.348Z,270
2017-10-30T11:24:12.907Z,260
2017-10-30T11:25:12.566Z,285
2017-10-30T11:26:13.225Z,325
2017-10-30T11:27:12.878Z,410
2017-10-30T11:28:13.556Z,415
2017-10-30T11:29:13.514Z,360
2017-10-30T11:30:12.497Z,325
2017-10-30T11:31:13.171Z,280
2017-10-30T11:32:13.349Z,245
2017-10-30T11:33:13.237Z,215
2017-10-30T11:34:12.457Z,205
2017-10-30T11:35:13.123Z,205
2017-10-30T11:36:12.437Z,230
2017-10-30T11:37:12.756Z,345
2017-10-30T11:38:13.424Z,445
2017-10-30T11:39:12.754Z,360
2017-10-30T11:40:13.293Z,430
2017-10-30T11:41:12.374Z,465
2017-10-30T11:42:13.374Z,595
2017-10-30T11:43:13.373Z,420
2017-10-30T11:44:13.035Z,790
2017-10-30T11:45:13.010Z,645
2017-10-30T11:46:13.011Z,920
2017-10-30T11:47:12.653Z,880
2017-10-30T11:48:12.653Z,905
2017-10-30T11:49:12.962Z,945
2017-10-30T11:50:12.615Z,995
2017-10-30T11:51:12.956Z,1030
2017-10-30T11:52:12.271Z,1025
2017-10-30T11:53:12.929Z,995
2017-10-30T11:54:12.579Z,990
2017-10-30T11:55:12.577Z,970
2017-10-30T11:56:12.895Z,445
2017-10-30T11:57:12.582Z,340
2017-10-30T11:58:12.898Z,200
2017-10-30T11:59:12.657Z,235
2017-10-30T12:00:13.217Z,970
2017-10-30T12:01:13.420Z,970
2017-10-30T12:02:12.196Z,910
2017-10-30T12:03:13.207Z,505
2017-10-30T12:04:12.513Z,545
2017-10-30T12:05:13.176Z,980
2017-10-30T12:06:12.508Z,1140
2017-10-30T12:07:12.494Z,970
2017-10-30T12:08:12.818Z,575
2017-10-30T12:09:12.980Z,760
2017-10-30T12:10:12.486Z,310
2017-10-30T12:11:12.470Z,320
2017-10-30T12:12:12.795Z,245
2017-10-30T12:13:12.462Z,1015
2017-10-30T12:14:12.128Z,1025
2017-10-30T12:15:12.451Z,1085
2017-10-30T12:16:12.458Z,1090
2017-10-30T12:17:12.445Z,1095
2017-10-30T12:18:13.101Z,725
2017-10-30T12:19:12.780Z,365
2017-10-30T12:20:12.090Z,305
2017-10-30T12:21:12.415Z,285
2017-10-30T12:22:12.409Z,265
2017-10-30T12:23:12.408Z,285
2017-10-30T12:24:13.078Z,300
2017-10-30T12:25:13.062Z,330
2017-10-30T12:26:13.052Z,200
2017-10-30T12:27:12.402Z,180
2017-10-30T12:28:12.404Z,170
2017-10-30T12:29:12.419Z,135
2017-10-30T12:30:12.702Z,110
2017-10-30T12:31:12.025Z,90
2017-10-30T12:32:12.017Z,90
2017-10-30T12:33:12.022Z,80
2017-10-30T12:34:12.003Z,65
2017-10-30T12:35:12.382Z,55
2017-10-30T12:36:12.656Z,50
2017-10-30T12:37:11.990Z,55
2017-10-30T12:38:12.313Z,65
2017-10-30T12:39:12.308Z,75
2017-10-30T12:40:12.739Z,85
2017-10-30T12:41:12.633Z,85
2017-10-30T12:42:12.955Z,105
2017-10-30T12:43:12.266Z,160
2017-10-30T12:44:12.583Z,200
2017-10-30T12:45:12.578Z,215
2017-10-30T12:46:12.240Z,215
2017-10-30T12:47:11.555Z,190
2017-10-30T12:48:12.895Z,155
2017-10-30T12:49:12.201Z,135
2017-10-30T12:50:12.731Z,125
2017-10-30T12:51:12.520Z,105
2017-10-30T12:52:12.186Z,90
2017-10-30T12:53:12.157Z,75
2017-10-30T12:54:12.823Z,70
2017-10-30T12:55:12.570Z,70
2017-10-30T12:56:12.457Z,75
2017-10-30T12:57:12.778Z,85
2017-10-30T12:58:12.785Z,100
2017-10-30T12:59:12.767Z,120
2017-10-30T13:00:12.076Z,140
2017-10-30T13:01:11.739Z,170
2017-10-30T13:02:11.714Z,195
2017-10-30T13:03:12.045Z,205
2017-10-30T13:04:12.360Z,215
2017-10-30T13:05:11.348Z,205
2017-10-30T13:06:12.326Z,190
2017-10-30T13:07:11.666Z,170
2017-10-30T13:08:11.973Z,165
2017-10-30T13:09:11.953Z,185
2017-10-30T13:10:12.722Z,170
2017-10-30T13:11:12.266Z,245
2017-10-30T13:12:11.937Z,225
2017-10-30T13:13:12.236Z,150
2017-10-30T13:14:12.249Z,135
2017-10-30T13:15:12.228Z,320
2017-10-30T13:16:12.533Z,145
2017-10-30T13:17:12.522Z,125
2017-10-30T13:18:12.531Z,105
2017-10-30T13:19:12.167Z,115
2017-10-30T13:20:11.493Z,140
2017-10-30T13:21:11.806Z,150
2017-10-30T13:22:11.799Z,150
2017-10-30T13:23:11.775Z,145
2017-10-30T13:24:11.764Z,145
2017-10-30T13:25:11.859Z,140
2017-10-30T13:26:12.417Z,150
2017-10-30T13:27:11.389Z,150
2017-10-30T13:28:12.044Z,165
2017-10-30T13:29:12.388Z,165
2017-10-30T13:30:12.024Z,160
2017-10-30T13:31:11.667Z,180
2017-10-30T13:32:11.856Z,175
2017-10-30T13:33:11.640Z,225
2017-10-30T13:34:11.628Z,500
2017-10-30T13:35:11.957Z,665
2017-10-30T13:36:12.267Z,255
2017-10-30T13:37:11.594Z,300
2017-10-30T13:38:11.916Z,315
2017-10-30T13:39:11.568Z,345
2017-10-30T13:40:11.886Z,230
2017-10-30T13:41:11.550Z,250
2017-10-30T13:42:12.193Z,245
2017-10-30T13:43:11.185Z,190
2017-10-30T13:44:11.165Z,175
2017-10-30T13:45:11.499Z,155
2017-10-30T13:46:11.486Z,160
2017-10-30T13:47:11.808Z,190
2017-10-30T13:48:11.468Z,215
2017-10-30T13:49:11.776Z,405
2017-10-30T13:50:11.435Z,445
2017-10-30T13:51:12.086Z,435
2017-10-30T13:52:11.410Z,390
2017-10-30T13:53:11.723Z,350
2017-10-30T13:54:11.711Z,300
2017-10-30T13:55:11.374Z,150
2017-10-30T13:56:11.364Z,130
2017-10-30T13:57:11.013Z,120
2017-10-30T13:58:11.339Z,115
2017-10-30T13:59:12.206Z,115
2017-10-30T14:00:11.316Z,120
2017-10-30T14:01:11.749Z,115
2017-10-30T14:02:11.295Z,120
2017-10-30T14:03:11.621Z,135
2017-10-30T14:04:11.268Z,140
2017-10-30T14:05:11.936Z,155
2017-10-30T14:06:11.927Z,165
2017-10-30T14:07:11.235Z,170
2017-10-30T14:08:11.555Z,190
2017-10-30T14:09:11.218Z,255
2017-10-30T14:10:11.874Z,260
2017-10-30T14:11:11.210Z,280
2017-10-30T14:12:10.843Z,190
2017-10-30T14:13:11.504Z,180
2017-10-30T14:14:11.492Z,165
2017-10-30T14:15:11.509Z,145
2017-10-30T14:16:11.131Z,140